Airport ICAO


20:16 UTC

20°C

Clear skies


An affordable passengers' Moving Map for your aircraft. Made for the iPad and the iPhone
More information here

LFOB Tille


Beauvais FRANCE   VFR CAVOK


METAR LFOB 162000Z AUTO 31007KT CAVOK 20/10 Q1014 NOSIG 0h16min

TAF LFOB 161700Z 1618/1718 33007KT CAVOK PROB30 1703/1706 BKN008 3h16min





NOTAMS

OPEN